sensor_id;sensor_type;location;lat;lon;timestamp;pressure;altitude;pressure_sealevel;temperature;humidity
56689;BME280;42565;53.342;-1.534;2023-07-22T00:01:28;98622.94;;;15.90;71.18
56689;BME280;42565;53.342;-1.534;2023-07-22T00:03:55;98614.53;;;16.06;71.07
56689;BME280;42565;53.342;-1.534;2023-07-22T00:06:23;98612.97;;;16.35;70.18
56689;BME280;42565;53.342;-1.534;2023-07-22T00:08:50;98617.44;;;16.34;70.27
56689;BME280;42565;53.342;-1.534;2023-07-22T00:11:18;98617.15;;;16.08;71.10
56689;BME280;42565;53.342;-1.534;2023-07-22T00:13:45;98610.95;;;15.77;71.61
56689;BME280;42565;53.342;-1.534;2023-07-22T00:16:13;98607.43;;;15.36;73.09
56689;BME280;42565;53.342;-1.534;2023-07-22T00:18:40;98606.31;;;15.35;72.90
56689;BME280;42565;53.342;-1.534;2023-07-22T00:21:08;98604.13;;;14.86;75.43
56689;BME280;42565;53.342;-1.534;2023-07-22T00:23:36;98606.27;;;13.98;78.96
56689;BME280;42565;53.342;-1.534;2023-07-22T00:26:03;98603.42;;;13.48;81.62
56689;BME280;42565;53.342;-1.534;2023-07-22T00:28:31;98596.42;;;13.35;83.70
56689;BME280;42565;53.342;-1.534;2023-07-22T00:30:58;98593.22;;;13.79;82.26
56689;BME280;42565;53.342;-1.534;2023-07-22T00:33:25;98588.16;;;13.61;83.59
56689;BME280;42565;53.342;-1.534;2023-07-22T00:35:52;98588.92;;;13.40;84.31
56689;BME280;42565;53.342;-1.534;2023-07-22T00:38:19;98590.22;;;13.78;81.66
56689;BME280;42565;53.342;-1.534;2023-07-22T00:40:46;98591.96;;;13.90;82.17
56689;BME280;42565;53.342;-1.534;2023-07-22T00:43:12;98588.68;;;13.54;83.07
56689;BME280;42565;53.342;-1.534;2023-07-22T00:45:40;98582.86;;;13.31;84.30
56689;BME280;42565;53.342;-1.534;2023-07-22T00:48:08;98583.74;;;13.16;83.86
56689;BME280;42565;53.342;-1.534;2023-07-22T00:50:37;98583.65;;;13.91;83.07
56689;BME280;42565;53.342;-1.534;2023-07-22T00:53:05;98581.27;;;14.09;82.22
56689;BME280;42565;53.342;-1.534;2023-07-22T00:55:33;98580.59;;;13.96;79.85
56689;BME280;42565;53.342;-1.534;2023-07-22T00:58:01;98580.41;;;14.31;79.45
56689;BME280;42565;53.342;-1.534;2023-07-22T01:00:28;98573.25;;;14.78;78.18
56689;BME280;42565;53.342;-1.534;2023-07-22T01:02:55;98569.59;;;14.73;77.47
56689;BME280;42565;53.342;-1.534;2023-07-22T01:05:23;98564.64;;;14.81;75.90
56689;BME280;42565;53.342;-1.534;2023-07-22T01:07:52;98556.62;;;14.50;77.39
56689;BME280;42565;53.342;-1.534;2023-07-22T01:10:20;98549.29;;;14.72;77.04
56689;BME280;42565;53.342;-1.534;2023-07-22T01:12:48;98545.13;;;15.03;75.83
56689;BME280;42565;53.342;-1.534;2023-07-22T01:15:16;98535.19;;;15.07;75.86
56689;BME280;42565;53.342;-1.534;2023-07-22T01:17:43;98531.08;;;14.06;78.98
56689;BME280;42565;53.342;-1.534;2023-07-22T01:20:11;98528.99;;;14.14;78.04
56689;BME280;42565;53.342;-1.534;2023-07-22T01:25:09;98526.32;;;14.28;80.10
56689;BME280;42565;53.342;-1.534;2023-07-22T01:27:37;98519.51;;;14.08;81.01
56689;BME280;42565;53.342;-1.534;2023-07-22T01:30:04;98517.94;;;14.02;81.49
56689;BME280;42565;53.342;-1.534;2023-07-22T01:32:36;98517.69;;;12.92;80.93
56689;BME280;42565;53.342;-1.534;2023-07-22T01:35:03;98513.49;;;14.36;79.24
56689;BME280;42565;53.342;-1.534;2023-07-22T01:37:31;98513.31;;;13.88;80.85
56689;BME280;42565;53.342;-1.534;2023-07-22T01:39:59;98511.37;;;14.46;79.00
56689;BME280;42565;53.342;-1.534;2023-07-22T01:42:26;98512.16;;;14.69;77.09
56689;BME280;42565;53.342;-1.534;2023-07-22T01:44:53;98507.11;;;13.74;80.55
56689;BME280;42565;53.342;-1.534;2023-07-22T01:47:21;98503.27;;;14.26;79.20
56689;BME280;42565;53.342;-1.534;2023-07-22T01:49:48;98501.91;;;14.22;78.46
56689;BME280;42565;53.342;-1.534;2023-07-22T01:52:15;98496.09;;;14.82;77.16
56689;BME280;42565;53.342;-1.534;2023-07-22T01:54:42;98493.78;;;13.40;83.84
56689;BME280;42565;53.342;-1.534;2023-07-22T01:57:09;98489.29;;;13.36;81.26
56689;BME280;42565;53.342;-1.534;2023-07-22T01:59:38;98485.22;;;12.53;81.80
56689;BME280;42565;53.342;-1.534;2023-07-22T02:02:06;98479.30;;;12.38;80.05
56689;BME280;42565;53.342;-1.534;2023-07-22T02:04:33;98476.55;;;13.59;77.96
56689;BME280;42565;53.342;-1.534;2023-07-22T02:07:01;98475.67;;;12.17;78.94
56689;BME280;42565;53.342;-1.534;2023-07-22T02:09:27;98475.91;;;13.56;79.23
56689;BME280;42565;53.342;-1.534;2023-07-22T02:11:55;98472.64;;;13.97;77.34
56689;BME280;42565;53.342;-1.534;2023-07-22T02:14:46;98469.19;;;13.96;75.76
56689;BME280;42565;53.342;-1.534;2023-07-22T02:17:13;98462.52;;;13.72;73.61
56689;BME280;42565;53.342;-1.534;2023-07-22T02:19:41;98457.85;;;15.04;69.69
56689;BME280;42565;53.342;-1.534;2023-07-22T02:22:08;98455.50;;;14.17;69.21
56689;BME280;42565;53.342;-1.534;2023-07-22T02:24:48;98450.93;;;14.42;71.68
56689;BME280;42565;53.342;-1.534;2023-07-22T02:27:23;98448.43;;;13.83;70.64
56689;BME280;42565;53.342;-1.534;2023-07-22T02:29:50;98449.43;;;15.08;70.64
56689;BME280;42565;53.342;-1.534;2023-07-22T02:32:19;98446.39;;;14.06;71.12
56689;BME280;42565;53.342;-1.534;2023-07-22T02:34:46;98440.72;;;14.54;71.11
56689;BME280;42565;53.342;-1.534;2023-07-22T02:37:14;98436.78;;;14.59;70.94
56689;BME280;42565;53.342;-1.534;2023-07-22T02:39:41;98438.63;;;15.06;71.56
56689;BME280;42565;53.342;-1.534;2023-07-22T02:42:08;98439.17;;;14.11;75.92
56689;BME280;42565;53.342;-1.534;2023-07-22T02:44:35;98435.88;;;14.29;76.12
56689;BME280;42565;53.342;-1.534;2023-07-22T02:47:01;98428.48;;;14.02;76.44
56689;BME280;42565;53.342;-1.534;2023-07-22T02:49:29;98425.83;;;14.17;77.07
56689;BME280;42565;53.342;-1.534;2023-07-22T02:51:56;98428.88;;;14.62;76.66
56689;BME280;42565;53.342;-1.534;2023-07-22T02:54:23;98426.18;;;14.45;77.98
56689;BME280;42565;53.342;-1.534;2023-07-22T02:56:51;98423.83;;;14.04;79.23
56689;BME280;42565;53.342;-1.534;2023-07-22T02:59:18;98423.16;;;13.95;79.27
56689;BME280;42565;53.342;-1.534;2023-07-22T03:01:45;98419.28;;;13.73;80.48
56689;BME280;42565;53.342;-1.534;2023-07-22T03:04:14;98416.29;;;14.02;80.67
56689;BME280;42565;53.342;-1.534;2023-07-22T03:06:41;98415.53;;;13.65;80.74
56689;BME280;42565;53.342;-1.534;2023-07-22T03:09:08;98411.70;;;13.82;79.74
56689;BME280;42565;53.342;-1.534;2023-07-22T03:11:35;98404.85;;;14.26;79.21
56689;BME280;42565;53.342;-1.534;2023-07-22T03:14:02;98404.70;;;14.22;79.78
56689;BME280;42565;53.342;-1.534;2023-07-22T03:16:29;98401.62;;;13.56;80.85
56689;BME280;42565;53.342;-1.534;2023-07-22T03:18:56;98404.42;;;13.65;80.47
56689;BME280;42565;53.342;-1.534;2023-07-22T03:21:22;98405.80;;;13.71;82.72
56689;BME280;42565;53.342;-1.534;2023-07-22T03:23:49;98405.33;;;13.56;83.95
56689;BME280;42565;53.342;-1.534;2023-07-22T03:26:16;98401.14;;;13.13;87.63
56689;BME280;42565;53.342;-1.534;2023-07-22T03:28:43;98402.15;;;13.18;86.70
56689;BME280;42565;53.342;-1.534;2023-07-22T03:31:10;98397.28;;;13.27;87.95
56689;BME280;42565;53.342;-1.534;2023-07-22T03:33:37;98395.52;;;13.11;88.25
56689;BME280;42565;53.342;-1.534;2023-07-22T03:36:04;98391.91;;;12.73;88.97
56689;BME280;42565;53.342;-1.534;2023-07-22T03:38:31;98390.06;;;13.01;88.30
56689;BME280;42565;53.342;-1.534;2023-07-22T03:40:58;98385.58;;;13.19;88.45
56689;BME280;42565;53.342;-1.534;2023-07-22T03:43:25;98387.74;;;13.04;90.17
56689;BME280;42565;53.342;-1.534;2023-07-22T03:45:52;98385.76;;;11.69;91.62
56689;BME280;42565;53.342;-1.534;2023-07-22T03:48:20;98375.13;;;11.94;94.17
56689;BME280;42565;53.342;-1.534;2023-07-22T03:50:47;98372.19;;;12.47;92.66
56689;BME280;42565;53.342;-1.534;2023-07-22T03:53:14;98373.30;;;11.92;94.24
56689;BME280;42565;53.342;-1.534;2023-07-22T03:55:41;98377.13;;;12.52;91.68
56689;BME280;42565;53.342;-1.534;2023-07-22T03:58:08;98376.26;;;12.82;89.03
56689;BME280;42565;53.342;-1.534;2023-07-22T04:00:35;98373.45;;;12.97;88.07
56689;BME280;42565;53.342;-1.534;2023-07-22T04:03:01;98373.36;;;12.86;87.99
56689;BME280;42565;53.342;-1.534;2023-07-22T04:05:29;98367.90;;;12.19;93.06
56689;BME280;42565;53.342;-1.534;2023-07-22T04:07:55;98357.33;;;12.67;91.32
56689;BME280;42565;53.342;-1.534;2023-07-22T04:10:22;98357.16;;;12.24;92.09
56689;BME280;42565;53.342;-1.534;2023-07-22T04:12:49;98354.46;;;11.99;92.08
56689;BME280;42565;53.342;-1.534;2023-07-22T04:15:16;98346.70;;;12.62;90.85
56689;BME280;42565;53.342;-1.534;2023-07-22T04:17:44;98355.57;;;12.65;89.45
56689;BME280;42565;53.342;-1.534;2023-07-22T04:20:11;98354.10;;;12.86;89.05
56689;BME280;42565;53.342;-1.534;2023-07-22T04:22:38;98342.62;;;12.73;89.86
56689;BME280;42565;53.342;-1.534;2023-07-22T04:25:06;98337.19;;;12.95;87.46
56689;BME280;42565;53.342;-1.534;2023-07-22T04:27:33;98332.79;;;13.35;86.39
56689;BME280;42565;53.342;-1.534;2023-07-22T04:30:00;98325.15;;;12.08;89.18
56689;BME280;42565;53.342;-1.534;2023-07-22T04:32:28;98325.01;;;12.56;90.20
56689;BME280;42565;53.342;-1.534;2023-07-22T04:34:54;98324.14;;;12.10;91.62
56689;BME280;42565;53.342;-1.534;2023-07-22T04:37:21;98324.48;;;12.51;91.02
56689;BME280;42565;53.342;-1.534;2023-07-22T04:39:49;98316.52;;;12.39;90.04
56689;BME280;42565;53.342;-1.534;2023-07-22T04:42:16;98317.50;;;12.66;88.75
56689;BME280;42565;53.342;-1.534;2023-07-22T04:44:43;98317.84;;;12.32;88.78
56689;BME280;42565;53.342;-1.534;2023-07-22T04:47:10;98313.17;;;11.98;92.32
56689;BME280;42565;53.342;-1.534;2023-07-22T04:49:38;98314.02;;;12.06;93.08
56689;BME280;42565;53.342;-1.534;2023-07-22T04:52:07;98312.86;;;12.62;90.31
56689;BME280;42565;53.342;-1.534;2023-07-22T04:54:34;98314.51;;;12.67;90.08
56689;BME280;42565;53.342;-1.534;2023-07-22T04:57:01;98316.85;;;11.45;94.70
56689;BME280;42565;53.342;-1.534;2023-07-22T04:59:28;98317.38;;;11.87;96.39
56689;BME280;42565;53.342;-1.534;2023-07-22T05:01:55;98318.71;;;12.34;92.81
56689;BME280;42565;53.342;-1.534;2023-07-22T05:04:22;98313.91;;;12.67;89.30
56689;BME280;42565;53.342;-1.534;2023-07-22T05:06:50;98310.15;;;12.44;91.03
56689;BME280;42565;53.342;-1.534;2023-07-22T05:09:18;98305.69;;;12.39;91.45
56689;BME280;42565;53.342;-1.534;2023-07-22T05:11:45;98301.74;;;12.53;90.48
56689;BME280;42565;53.342;-1.534;2023-07-22T05:14:13;98301.30;;;12.06;95.40
56689;BME280;42565;53.342;-1.534;2023-07-22T05:16:40;98295.11;;;11.96;96.26
56689;BME280;42565;53.342;-1.534;2023-07-22T05:19:07;98291.12;;;11.71;95.75
56689;BME280;42565;53.342;-1.534;2023-07-22T05:21:33;98286.89;;;11.76;94.58
56689;BME280;42565;53.342;-1.534;2023-07-22T05:24:01;98285.05;;;12.50;92.51
56689;BME280;42565;53.342;-1.534;2023-07-22T05:26:28;98285.52;;;12.85;87.88
56689;BME280;42565;53.342;-1.534;2023-07-22T05:28:55;98279.93;;;12.47;90.61
56689;BME280;42565;53.342;-1.534;2023-07-22T05:31:23;98275.81;;;12.54;91.00
56689;BME280;42565;53.342;-1.534;2023-07-22T05:33:51;98278.98;;;11.02;95.18
56689;BME280;42565;53.342;-1.534;2023-07-22T05:36:18;98270.09;;;11.67;96.74
56689;BME280;42565;53.342;-1.534;2023-07-22T05:38:45;98266.07;;;11.40;99.13
56689;BME280;42565;53.342;-1.534;2023-07-22T05:41:11;98258.80;;;11.66;98.66
56689;BME280;42565;53.342;-1.534;2023-07-22T05:43:39;98261.56;;;11.90;98.26
56689;BME280;42565;53.342;-1.534;2023-07-22T05:46:06;98258.63;;;12.10;95.64
56689;BME280;42565;53.342;-1.534;2023-07-22T05:48:33;98261.62;;;12.01;97.02
56689;BME280;42565;53.342;-1.534;2023-07-22T05:51:00;98254.84;;;11.69;98.28
56689;BME280;42565;53.342;-1.534;2023-07-22T05:53:27;98260.70;;;11.70;100.00
56689;BME280;42565;53.342;-1.534;2023-07-22T05:55:55;98259.06;;;11.73;98.27
56689;BME280;42565;53.342;-1.534;2023-07-22T05:58:21;98257.48;;;12.20;95.95
56689;BME280;42565;53.342;-1.534;2023-07-22T06:00:48;98253.46;;;11.32;97.07
56689;BME280;42565;53.342;-1.534;2023-07-22T06:03:16;98249.68;;;12.12;95.43
56689;BME280;42565;53.342;-1.534;2023-07-22T06:05:42;98249.53;;;11.68;98.47
56689;BME280;42565;53.342;-1.534;2023-07-22T06:08:10;98249.40;;;12.41;95.85
56689;BME280;42565;53.342;-1.534;2023-07-22T06:10:37;98246.96;;;12.80;94.84
56689;BME280;42565;53.342;-1.534;2023-07-22T06:13:05;98245.57;;;12.50;94.57
56689;BME280;42565;53.342;-1.534;2023-07-22T06:15:32;98249.11;;;12.58;95.59
56689;BME280;42565;53.342;-1.534;2023-07-22T06:17:59;98239.17;;;11.85;98.45
56689;BME280;42565;53.342;-1.534;2023-07-22T06:20:27;98240.45;;;12.10;98.63
56689;BME280;42565;53.342;-1.534;2023-07-22T06:22:55;98232.47;;;12.05;97.98
56689;BME280;42565;53.342;-1.534;2023-07-22T06:25:23;98236.68;;;12.48;97.24
56689;BME280;42565;53.342;-1.534;2023-07-22T06:27:50;98229.80;;;11.76;99.67
56689;BME280;42565;53.342;-1.534;2023-07-22T06:30:17;98226.57;;;11.57;100.00
56689;BME280;42565;53.342;-1.534;2023-07-22T06:32:44;98228.62;;;10.99;100.00
56689;BME280;42565;53.342;-1.534;2023-07-22T06:35:11;98227.76;;;11.34;100.00
56689;BME280;42565;53.342;-1.534;2023-07-22T06:37:39;98223.06;;;12.17;100.00
56689;BME280;42565;53.342;-1.534;2023-07-22T06:40:07;98227.78;;;11.65;100.00
56689;BME280;42565;53.342;-1.534;2023-07-22T06:42:34;98222.53;;;11.40;100.00
56689;BME280;42565;53.342;-1.534;2023-07-22T06:45:01;98220.20;;;12.10;100.00
56689;BME280;42565;53.342;-1.534;2023-07-22T06:47:28;98219.42;;;11.97;100.00
56689;BME280;42565;53.342;-1.534;2023-07-22T06:49:55;98220.27;;;11.90;98.80
56689;BME280;42565;53.342;-1.534;2023-07-22T06:52:22;98220.12;;;11.99;99.75
56689;BME280;42565;53.342;-1.534;2023-07-22T06:54:49;98220.53;;;11.69;97.73
56689;BME280;42565;53.342;-1.534;2023-07-22T06:57:16;98216.76;;;12.14;99.18
56689;BME280;42565;53.342;-1.534;2023-07-22T06:59:44;98216.07;;;11.70;99.19
56689;BME280;42565;53.342;-1.534;2023-07-22T07:02:11;98210.05;;;11.61;100.00
56689;BME280;42565;53.342;-1.534;2023-07-22T07:04:38;98209.51;;;11.92;100.00
56689;BME280;42565;53.342;-1.534;2023-07-22T07:07:05;98207.40;;;11.94;100.00
56689;BME280;42565;53.342;-1.534;2023-07-22T07:09:32;98208.46;;;11.86;100.00
56689;BME280;42565;53.342;-1.534;2023-07-22T07:11:59;98203.44;;;11.57;100.00
56689;BME280;42565;53.342;-1.534;2023-07-22T07:14:26;98203.99;;;11.54;100.00
56689;BME280;42565;53.342;-1.534;2023-07-22T07:16:53;98199.99;;;10.70;100.00
56689;BME280;42565;53.342;-1.534;2023-07-22T07:19:20;98197.82;;;11.92;100.00
56689;BME280;42565;53.342;-1.534;2023-07-22T07:21:47;98200.63;;;11.48;100.00
56689;BME280;42565;53.342;-1.534;2023-07-22T07:24:14;98203.66;;;11.79;100.00
56689;BME280;42565;53.342;-1.534;2023-07-22T07:26:41;98193.49;;;11.88;100.00
56689;BME280;42565;53.342;-1.534;2023-07-22T07:29:08;98192.79;;;10.91;100.00
56689;BME280;42565;53.342;-1.534;2023-07-22T07:31:36;98197.80;;;11.24;100.00
56689;BME280;42565;53.342;-1.534;2023-07-22T07:34:08;98188.51;;;11.94;100.00
56689;BME280;42565;53.342;-1.534;2023-07-22T07:36:35;98180.25;;;12.11;100.00
56689;BME280;42565;53.342;-1.534;2023-07-22T07:39:07;98175.14;;;12.23;100.00
56689;BME280;42565;53.342;-1.534;2023-07-22T07:41:34;98175.35;;;12.12;100.00
56689;BME280;42565;53.342;-1.534;2023-07-22T07:44:00;98181.40;;;11.55;100.00
56689;BME280;42565;53.342;-1.534;2023-07-22T07:46:28;98167.24;;;11.60;100.00
56689;BME280;42565;53.342;-1.534;2023-07-22T07:48:56;98165.58;;;11.13;100.00
56689;BME280;42565;53.342;-1.534;2023-07-22T07:51:25;98167.52;;;11.62;100.00
56689;BME280;42565;53.342;-1.534;2023-07-22T07:53:53;98165.69;;;11.72;100.00
56689;BME280;42565;53.342;-1.534;2023-07-22T07:56:21;98169.03;;;11.34;100.00
56689;BME280;42565;53.342;-1.534;2023-07-22T07:58:50;98164.75;;;11.20;100.00
56689;BME280;42565;53.342;-1.534;2023-07-22T08:01:17;98159.05;;;11.47;100.00
56689;BME280;42565;53.342;-1.534;2023-07-22T08:03:45;98159.16;;;11.30;100.00
56689;BME280;42565;53.342;-1.534;2023-07-22T08:06:12;98158.12;;;11.99;100.00
56689;BME280;42565;53.342;-1.534;2023-07-22T08:08:40;98155.81;;;11.56;100.00
56689;BME280;42565;53.342;-1.534;2023-07-22T08:11:09;98151.51;;;11.53;100.00
56689;BME280;42565;53.342;-1.534;2023-07-22T08:13:37;98154.25;;;11.69;100.00
56689;BME280;42565;53.342;-1.534;2023-07-22T08:16:06;98155.86;;;11.22;100.00
56689;BME280;42565;53.342;-1.534;2023-07-22T08:18:34;98153.90;;;10.97;100.00
56689;BME280;42565;53.342;-1.534;2023-07-22T08:21:02;98159.06;;;11.06;100.00
56689;BME280;42565;53.342;-1.534;2023-07-22T08:23:30;98162.31;;;11.22;100.00
56689;BME280;42565;53.342;-1.534;2023-07-22T08:26:03;98151.85;;;11.05;100.00
56689;BME280;42565;53.342;-1.534;2023-07-22T08:28:30;98146.96;;;11.28;100.00
56689;BME280;42565;53.342;-1.534;2023-07-22T08:30:58;98153.21;;;11.23;100.00
56689;BME280;42565;53.342;-1.534;2023-07-22T08:33:25;98145.68;;;12.06;100.00
56689;BME280;42565;53.342;-1.534;2023-07-22T08:35:53;98147.22;;;11.32;100.00
56689;BME280;42565;53.342;-1.534;2023-07-22T08:38:20;98147.81;;;12.18;100.00
56689;BME280;42565;53.342;-1.534;2023-07-22T08:40:49;98146.66;;;12.63;100.00
56689;BME280;42565;53.342;-1.534;2023-07-22T08:43:20;98151.35;;;13.15;100.00
56689;BME280;42565;53.342;-1.534;2023-07-22T08:45:48;98155.88;;;12.63;99.87
56689;BME280;42565;53.342;-1.534;2023-07-22T08:48:17;98158.40;;;12.65;100.00
56689;BME280;42565;53.342;-1.534;2023-07-22T08:50:45;98153.99;;;12.88;100.00
56689;BME280;42565;53.342;-1.534;2023-07-22T08:53:13;98155.10;;;12.58;100.00
56689;BME280;42565;53.342;-1.534;2023-07-22T08:55:41;98147.44;;;11.89;100.00
56689;BME280;42565;53.342;-1.534;2023-07-22T08:58:09;98154.48;;;12.01;100.00
56689;BME280;42565;53.342;-1.534;2023-07-22T09:00:38;98148.45;;;12.38;100.00
56689;BME280;42565;53.342;-1.534;2023-07-22T09:03:06;98142.18;;;12.15;100.00
56689;BME280;42565;53.342;-1.534;2023-07-22T09:05:34;98148.58;;;12.76;100.00
56689;BME280;42565;53.342;-1.534;2023-07-22T09:08:03;98145.72;;;12.83;100.00
56689;BME280;42565;53.342;-1.534;2023-07-22T09:10:31;98144.33;;;12.63;100.00
56689;BME280;42565;53.342;-1.534;2023-07-22T09:13:00;98143.08;;;13.03;100.00
56689;BME280;42565;53.342;-1.534;2023-07-22T09:15:28;98140.20;;;12.64;100.00
56689;BME280;42565;53.342;-1.534;2023-07-22T09:17:55;98141.09;;;12.02;100.00
56689;BME280;42565;53.342;-1.534;2023-07-22T09:20:22;98142.16;;;12.38;100.00
56689;BME280;42565;53.342;-1.534;2023-07-22T09:22:50;98138.71;;;12.51;100.00
56689;BME280;42565;53.342;-1.534;2023-07-22T09:25:18;98135.92;;;12.66;100.00
56689;BME280;42565;53.342;-1.534;2023-07-22T09:27:47;98133.34;;;12.66;100.00
56689;BME280;42565;53.342;-1.534;2023-07-22T09:30:24;98132.97;;;12.96;100.00
56689;BME280;42565;53.342;-1.534;2023-07-22T09:32:52;98132.01;;;12.33;100.00
56689;BME280;42565;53.342;-1.534;2023-07-22T09:35:20;98128.03;;;12.58;100.00
56689;BME280;42565;53.342;-1.534;2023-07-22T09:37:48;98126.81;;;13.15;100.00
56689;BME280;42565;53.342;-1.534;2023-07-22T09:40:18;98127.83;;;13.07;99.87
56689;BME280;42565;53.342;-1.534;2023-07-22T09:42:47;98128.24;;;12.75;99.05
56689;BME280;42565;53.342;-1.534;2023-07-22T09:45:14;98129.62;;;13.02;100.00
56689;BME280;42565;53.342;-1.534;2023-07-22T09:47:43;98129.96;;;13.33;100.00
56689;BME280;42565;53.342;-1.534;2023-07-22T09:50:13;98127.91;;;13.31;100.00
56689;BME280;42565;53.342;-1.534;2023-07-22T09:52:49;98126.04;;;12.94;100.00
56689;BME280;42565;53.342;-1.534;2023-07-22T09:55:18;98126.07;;;11.91;100.00
56689;BME280;42565;53.342;-1.534;2023-07-22T09:57:47;98121.07;;;11.83;100.00
56689;BME280;42565;53.342;-1.534;2023-07-22T10:00:15;98120.53;;;11.75;100.00
56689;BME280;42565;53.342;-1.534;2023-07-22T10:02:43;98120.74;;;11.94;100.00
56689;BME280;42565;53.342;-1.534;2023-07-22T10:05:13;98124.68;;;12.47;100.00
56689;BME280;42565;53.342;-1.534;2023-07-22T10:07:44;98121.21;;;12.83;100.00
56689;BME280;42565;53.342;-1.534;2023-07-22T10:10:13;98117.97;;;12.82;100.00
56689;BME280;42565;53.342;-1.534;2023-07-22T10:12:42;98114.61;;;12.24;100.00
56689;BME280;42565;53.342;-1.534;2023-07-22T10:15:11;98117.53;;;12.06;100.00
56689;BME280;42565;53.342;-1.534;2023-07-22T10:17:39;98114.30;;;12.60;100.00
56689;BME280;42565;53.342;-1.534;2023-07-22T10:20:07;98107.64;;;13.10;100.00
56689;BME280;42565;53.342;-1.534;2023-07-22T10:22:36;98102.86;;;12.32;100.00
56689;BME280;42565;53.342;-1.534;2023-07-22T10:25:05;98107.95;;;12.53;100.00
56689;BME280;42565;53.342;-1.534;2023-07-22T10:27:32;98121.00;;;12.34;100.00
56689;BME280;42565;53.342;-1.534;2023-07-22T10:29:59;98106.20;;;12.62;100.00
56689;BME280;42565;53.342;-1.534;2023-07-22T10:32:33;98105.67;;;12.86;100.00
56689;BME280;42565;53.342;-1.534;2023-07-22T10:35:00;98108.62;;;12.71;100.00
56689;BME280;42565;53.342;-1.534;2023-07-22T10:37:32;98104.58;;;12.64;100.00
56689;BME280;42565;53.342;-1.534;2023-07-22T10:40:00;98092.18;;;12.19;100.00
56689;BME280;42565;53.342;-1.534;2023-07-22T10:42:27;98095.72;;;12.41;100.00
56689;BME280;42565;53.342;-1.534;2023-07-22T10:45:00;98093.63;;;12.61;100.00
56689;BME280;42565;53.342;-1.534;2023-07-22T10:47:35;98092.73;;;12.52;100.00
56689;BME280;42565;53.342;-1.534;2023-07-22T10:50:07;98088.69;;;12.54;100.00
56689;BME280;42565;53.342;-1.534;2023-07-22T10:52:40;98084.17;;;12.56;100.00
56689;BME280;42565;53.342;-1.534;2023-07-22T10:55:15;98079.59;;;12.51;100.00
56689;BME280;42565;53.342;-1.534;2023-07-22T10:57:48;98077.12;;;12.67;100.00
56689;BME280;42565;53.342;-1.534;2023-07-22T11:00:19;98074.39;;;13.02;100.00
56689;BME280;42565;53.342;-1.534;2023-07-22T11:02:47;98077.50;;;13.21;100.00
56689;BME280;42565;53.342;-1.534;2023-07-22T11:05:53;98069.14;;;13.06;100.00
56689;BME280;42565;53.342;-1.534;2023-07-22T11:08:37;98072.54;;;12.79;100.00
56689;BME280;42565;53.342;-1.534;2023-07-22T11:11:04;98065.68;;;12.75;100.00
56689;BME280;42565;53.342;-1.534;2023-07-22T11:13:37;98066.49;;;12.89;100.00
56689;BME280;42565;53.342;-1.534;2023-07-22T11:16:04;98065.95;;;12.69;100.00
56689;BME280;42565;53.342;-1.534;2023-07-22T11:18:36;98063.31;;;13.00;100.00
56689;BME280;42565;53.342;-1.534;2023-07-22T11:21:07;98054.99;;;13.31;100.00
56689;BME280;42565;53.342;-1.534;2023-07-22T11:23:35;98056.07;;;13.94;100.00
56689;BME280;42565;53.342;-1.534;2023-07-22T11:26:03;98052.62;;;13.94;100.00
56689;BME280;42565;53.342;-1.534;2023-07-22T11:28:31;98055.87;;;13.40;100.00
56689;BME280;42565;53.342;-1.534;2023-07-22T11:30:58;98046.93;;;13.15;100.00
56689;BME280;42565;53.342;-1.534;2023-07-22T11:33:26;98038.95;;;13.54;100.00
56689;BME280;42565;53.342;-1.534;2023-07-22T11:35:53;98040.23;;;13.06;100.00
56689;BME280;42565;53.342;-1.534;2023-07-22T11:38:20;98042.79;;;13.59;100.00
56689;BME280;42565;53.342;-1.534;2023-07-22T11:40:47;98038.82;;;12.95;100.00
56689;BME280;42565;53.342;-1.534;2023-07-22T11:43:15;98030.65;;;13.88;100.00
56689;BME280;42565;53.342;-1.534;2023-07-22T11:45:43;98029.46;;;12.91;100.00
56689;BME280;42565;53.342;-1.534;2023-07-22T11:48:11;98026.03;;;13.45;100.00
56689;BME280;42565;53.342;-1.534;2023-07-22T11:50:38;98027.24;;;12.76;100.00
56689;BME280;42565;53.342;-1.534;2023-07-22T11:53:07;98020.00;;;13.41;100.00
56689;BME280;42565;53.342;-1.534;2023-07-22T11:55:35;98018.29;;;12.94;100.00
56689;BME280;42565;53.342;-1.534;2023-07-22T11:58:03;98012.37;;;13.19;100.00
56689;BME280;42565;53.342;-1.534;2023-07-22T12:00:32;98012.72;;;13.45;100.00
56689;BME280;42565;53.342;-1.534;2023-07-22T12:03:05;98015.52;;;12.37;100.00
56689;BME280;42565;53.342;-1.534;2023-07-22T12:05:35;98005.12;;;12.91;100.00
56689;BME280;42565;53.342;-1.534;2023-07-22T12:08:03;98003.25;;;12.94;100.00
56689;BME280;42565;53.342;-1.534;2023-07-22T12:10:30;98003.17;;;12.67;100.00
56689;BME280;42565;53.342;-1.534;2023-07-22T12:13:00;97997.57;;;13.20;100.00
56689;BME280;42565;53.342;-1.534;2023-07-22T12:15:27;98005.65;;;13.38;100.00
56689;BME280;42565;53.342;-1.534;2023-07-22T12:17:57;97996.61;;;12.72;100.00
56689;BME280;42565;53.342;-1.534;2023-07-22T12:20:25;97992.27;;;12.82;100.00
56689;BME280;42565;53.342;-1.534;2023-07-22T12:22:53;97987.08;;;12.06;100.00
56689;BME280;42565;53.342;-1.534;2023-07-22T12:25:20;97991.82;;;12.44;100.00
56689;BME280;42565;53.342;-1.534;2023-07-22T12:27:48;97989.00;;;12.77;100.00
56689;BME280;42565;53.342;-1.534;2023-07-22T12:30:16;97988.24;;;12.63;100.00
56689;BME280;42565;53.342;-1.534;2023-07-22T12:32:43;97990.45;;;12.33;100.00
56689;BME280;42565;53.342;-1.534;2023-07-22T12:35:10;97987.57;;;11.99;100.00
56689;BME280;42565;53.342;-1.534;2023-07-22T12:37:38;97980.41;;;12.43;100.00
56689;BME280;42565;53.342;-1.534;2023-07-22T12:40:06;97983.96;;;12.73;100.00
56689;BME280;42565;53.342;-1.534;2023-07-22T12:42:34;97980.25;;;13.66;100.00
56689;BME280;42565;53.342;-1.534;2023-07-22T12:45:02;97976.59;;;12.55;100.00
56689;BME280;42565;53.342;-1.534;2023-07-22T12:47:28;97977.23;;;12.69;100.00
56689;BME280;42565;53.342;-1.534;2023-07-22T12:49:56;97979.20;;;11.90;100.00
56689;BME280;42565;53.342;-1.534;2023-07-22T12:52:23;97973.32;;;12.74;100.00